createdAt,value
2022-11-04T00:00:34.940Z,80.33
2022-11-04T00:03:01.743Z,79.89
2022-11-04T00:05:28.508Z,79.19
2022-11-04T00:08:13.701Z,79.07
2022-11-04T00:11:15.714Z,78.37
2022-11-04T00:13:42.790Z,77.78
2022-11-04T00:16:28.830Z,77.52
2022-11-04T00:18:56.093Z,76.53
2022-11-04T00:21:41.133Z,76.18
2022-11-04T00:24:30.654Z,75.69
2022-11-04T00:27:16.914Z,74.79
2022-11-04T00:29:44.165Z,74.42
2022-11-04T00:32:29.400Z,74.18
2022-11-04T00:34:56.248Z,74.36
2022-11-04T00:37:23.554Z,74.03
2022-11-04T00:39:50.343Z,73.78
2022-11-04T00:42:17.137Z,73.85
2022-11-04T00:44:43.925Z,73.20
2022-11-04T00:47:10.728Z,72.68
2022-11-04T00:49:37.474Z,72.84
2022-11-04T00:52:04.516Z,72.86
2022-11-04T00:54:31.285Z,72.40
2022-11-04T00:56:58.037Z,72.56
2022-11-04T00:59:24.834Z,72.96
2022-11-04T01:01:51.878Z,73.03
2022-11-04T01:04:18.747Z,73.18
2022-11-04T01:06:45.958Z,73.97
2022-11-04T01:09:13.743Z,73.88
2022-11-04T01:11:40.604Z,74.33
2022-11-04T01:14:07.501Z,74.19
2022-11-04T01:16:34.296Z,74.43
2022-11-04T01:19:01.210Z,74.02
2022-11-04T01:21:28.042Z,74.24
2022-11-04T01:23:54.902Z,73.64
2022-11-04T01:26:24.872Z,74.50
2022-11-04T01:28:54.651Z,75.01
2022-11-04T01:31:25.868Z,75.22
2022-11-04T01:33:54.427Z,75.17
2022-11-04T01:36:22.510Z,76.02
2022-11-04T01:38:49.979Z,76.27
2022-11-04T01:41:29.702Z,76.00
2022-11-04T01:44:03.650Z,75.75
2022-11-04T01:46:38.057Z,75.93
2022-11-04T01:49:31.621Z,77.62
2022-11-04T01:52:13.640Z,76.62
2022-11-04T01:54:43.374Z,77.44
2022-11-04T01:57:15.212Z,77.08
2022-11-04T01:59:42.825Z,77.53
2022-11-04T02:02:09.838Z,77.68
2022-11-04T02:04:39.265Z,77.06
2022-11-04T02:07:09.501Z,76.94
2022-11-04T02:09:38.425Z,76.93
2022-11-04T02:12:24.680Z,77.70
2022-11-04T02:14:53.058Z,76.78
2022-11-04T02:17:19.761Z,76.97
2022-11-04T02:20:17.622Z,76.85
2022-11-04T02:23:23.973Z,77.82
2022-11-04T02:26:28.495Z,76.81
2022-11-04T02:29:36.923Z,77.23
2022-11-04T02:32:45.847Z,77.11
2022-11-04T02:35:51.223Z,76.67
2022-11-04T02:38:50.823Z,76.68
2022-11-04T02:41:32.619Z,77.15
2022-11-04T02:44:13.090Z,76.02
2022-11-04T02:47:00.268Z,75.60
2022-11-04T02:49:48.095Z,75.62
2022-11-04T02:52:22.510Z,74.80
2022-11-04T02:54:58.646Z,74.13
2022-11-04T02:57:31.329Z,73.30
2022-11-04T03:00:09.078Z,72.68
2022-11-04T03:02:44.789Z,72.09
2022-11-04T03:05:18.859Z,72.48
2022-11-04T03:07:48.356Z,72.13
2022-11-04T03:10:38.793Z,71.95
2022-11-04T03:13:15.900Z,71.63
2022-11-04T03:15:59.791Z,71.51
2022-11-04T03:19:01.900Z,72.27
2022-11-04T03:21:31.553Z,71.97
2022-11-04T03:23:58.493Z,72.84
2022-11-04T03:27:04.516Z,71.64
2022-11-04T03:29:35.157Z,72.27
2022-11-04T03:32:56.183Z,72.20
2022-11-04T03:35:23.398Z,72.63
2022-11-04T03:37:50.295Z,72.18
2022-11-04T03:40:19.343Z,71.82
2022-11-04T03:43:11.242Z,71.66
2022-11-04T03:45:41.685Z,71.93
2022-11-04T03:48:10.093Z,71.38
2022-11-04T03:50:47.582Z,71.00
2022-11-04T03:53:22.539Z,72.72
2022-11-04T03:56:38.348Z,72.46
2022-11-04T04:00:01.776Z,71.24
2022-11-04T04:02:59.662Z,71.40
2022-11-04T04:05:35.295Z,72.00
2022-11-04T04:08:25.563Z,71.48
2022-11-04T04:11:33.832Z,71.45
2022-11-04T04:14:41.645Z,71.64
2022-11-04T04:17:31.538Z,71.92
2022-11-04T04:20:19.801Z,72.11
2022-11-04T04:23:01.635Z,72.23
2022-11-04T04:25:50.473Z,72.48
2022-11-04T04:28:19.531Z,72.83
2022-11-04T04:30:46.852Z,72.93
2022-11-04T04:33:16.765Z,71.48
2022-11-04T04:35:54.046Z,71.46
2022-11-04T04:38:42.911Z,71.64
2022-11-04T04:41:38.785Z,72.69
2022-11-04T04:44:50.906Z,72.59
2022-11-04T04:47:23.154Z,71.99
2022-11-04T04:49:56.340Z,71.89
2022-11-04T04:52:28.018Z,71.77
2022-11-04T04:54:54.832Z,71.36
2022-11-04T04:57:21.629Z,71.18
2022-11-04T04:59:48.455Z,71.31
2022-11-04T05:02:15.379Z,71.47
2022-11-04T05:04:42.264Z,71.57
2022-11-04T05:07:09.969Z,71.40
2022-11-04T05:09:37.166Z,71.52
2022-11-04T05:12:04.376Z,72.06
2022-11-04T05:14:31.168Z,72.59
2022-11-04T05:16:58.123Z,72.40
2022-11-04T05:19:24.959Z,72.27
2022-11-04T05:21:51.781Z,72.28
2022-11-04T05:24:18.549Z,71.93
2022-11-04T05:26:45.366Z,71.85
2022-11-04T05:29:12.476Z,71.78
2022-11-04T05:31:39.789Z,72.07
2022-11-04T05:34:06.586Z,72.26
2022-11-04T05:36:33.489Z,72.73
2022-11-04T05:39:00.295Z,73.20
2022-11-04T05:41:27.247Z,73.09
2022-11-04T05:43:56.293Z,74.15
2022-11-04T05:46:23.612Z,73.38
2022-11-04T05:48:51.099Z,73.25
2022-11-04T05:51:26.247Z,73.36
2022-11-04T05:53:53.590Z,73.72
2022-11-04T05:56:20.442Z,74.17
2022-11-04T05:58:47.263Z,74.36
2022-11-04T06:01:25.266Z,74.61
2022-11-04T06:03:53.560Z,75.00
2022-11-04T06:06:22.091Z,74.95
2022-11-04T06:08:50.617Z,75.77
2022-11-04T06:11:18.325Z,76.15
2022-11-04T06:13:45.116Z,76.04
2022-11-04T06:16:11.901Z,77.12
2022-11-04T06:18:38.666Z,76.58
2022-11-04T06:21:15.390Z,77.16
2022-11-04T06:23:43.206Z,77.36
2022-11-04T06:26:11.722Z,78.72
2022-11-04T06:28:39.068Z,77.27
2022-11-04T06:31:08.581Z,77.02
2022-11-04T06:33:36.947Z,77.05
2022-11-04T06:36:07.477Z,77.09
2022-11-04T06:38:37.348Z,77.31
2022-11-04T06:43:37.705Z,76.99
2022-11-04T06:46:05.018Z,77.31
2022-11-04T06:48:32.406Z,77.66
2022-11-04T06:51:00.633Z,77.94
2022-11-04T06:53:29.090Z,78.06
2022-11-04T06:56:04.015Z,77.47
2022-11-04T06:58:30.868Z,77.97
2022-11-04T07:00:57.757Z,78.02
2022-11-04T07:03:24.567Z,77.96
2022-11-04T07:05:51.383Z,77.92
2022-11-04T07:08:18.782Z,78.08
2022-11-04T07:10:45.594Z,77.75
2022-11-04T07:13:12.360Z,78.41
2022-11-04T07:15:40.192Z,78.39
2022-11-04T07:18:07.535Z,78.33
2022-11-04T07:20:36.661Z,78.37
2022-11-04T07:23:03.694Z,78.56
2022-11-04T07:25:30.623Z,78.15
2022-11-04T07:28:01.084Z,77.83
2022-11-04T07:30:29.313Z,77.66
2022-11-04T07:32:56.143Z,77.86
2022-11-04T07:35:22.909Z,77.91
2022-11-04T07:37:49.728Z,77.66
2022-11-04T07:40:16.602Z,77.80
2022-11-04T07:42:43.392Z,77.55
2022-11-04T07:45:10.440Z,77.63
2022-11-04T07:47:37.241Z,77.59
2022-11-04T07:50:10.584Z,77.64
2022-11-04T07:52:38.261Z,78.05
2022-11-04T07:55:06.001Z,77.48
2022-11-04T07:57:32.779Z,77.79
2022-11-04T07:59:59.614Z,77.13
2022-11-04T08:02:31.051Z,77.73
2022-11-04T08:05:00.864Z,77.79
2022-11-04T08:07:27.643Z,77.78
2022-11-04T08:09:54.399Z,77.68
2022-11-04T08:12:23.757Z,77.92
2022-11-04T08:14:51.207Z,77.62
2022-11-04T08:17:17.971Z,78.10
2022-11-04T08:19:44.879Z,77.79
2022-11-04T08:22:11.715Z,78.26
2022-11-04T08:24:38.526Z,78.58
2022-11-04T08:27:07.554Z,78.39
2022-11-04T08:29:35.390Z,78.45
2022-11-04T08:32:02.613Z,78.66
2022-11-04T08:34:29.693Z,79.09
2022-11-04T08:37:00.180Z,78.95
2022-11-04T08:39:27.336Z,79.05
2022-11-04T08:41:54.436Z,78.90
2022-11-04T08:44:22.337Z,78.41
2022-11-04T08:46:49.130Z,78.46
2022-11-04T08:49:20.681Z,78.33
2022-11-04T08:51:56.078Z,78.16
2022-11-04T08:54:24.849Z,78.73
2022-11-04T08:56:51.850Z,77.68
2022-11-04T08:59:18.643Z,78.59
2022-11-04T09:01:45.518Z,78.18
2022-11-04T09:04:13.712Z,78.45
2022-11-04T09:06:43.853Z,78.94
2022-11-04T09:09:15.187Z,79.25
2022-11-04T09:11:44.033Z,79.05
2022-11-04T09:14:11.703Z,78.93
2022-11-04T09:16:40.169Z,78.96
2022-11-04T09:19:07.382Z,78.18
2022-11-04T09:21:34.298Z,78.10
2022-11-04T09:24:01.116Z,77.79
2022-11-04T09:26:28.393Z,77.96
2022-11-04T09:28:57.778Z,78.65
2022-11-04T09:31:26.742Z,78.86
2022-11-04T09:33:55.608Z,78.19
2022-11-04T09:36:23.034Z,77.06
2022-11-04T09:38:49.819Z,77.54
2022-11-04T09:41:42.404Z,77.17
2022-11-04T09:45:20.655Z,76.98
2022-11-04T09:47:49.717Z,76.83
2022-11-04T09:50:23.836Z,77.31
2022-11-04T09:53:09.450Z,78.11
2022-11-04T09:55:41.691Z,77.41
2022-11-04T09:58:14.571Z,77.84
2022-11-04T10:00:48.781Z,77.45
2022-11-04T10:03:49.852Z,78.18
2022-11-04T10:06:44.026Z,77.14
2022-11-04T10:09:32.578Z,77.60
2022-11-04T10:12:30.999Z,77.78
2022-11-04T10:15:39.932Z,77.40
2022-11-04T10:18:33.317Z,78.09
2022-11-04T10:21:38.756Z,77.08
2022-11-04T10:24:29.656Z,77.86
2022-11-04T10:27:05.243Z,77.08
2022-11-04T10:29:42.939Z,76.95
2022-11-04T10:32:40.252Z,75.86
2022-11-04T10:35:40.655Z,75.89
2022-11-04T10:38:17.697Z,76.36
2022-11-04T10:40:51.693Z,76.25
2022-11-04T10:43:39.240Z,76.83
2022-11-04T10:46:38.752Z,76.89
2022-11-04T10:49:33.665Z,75.59
2022-11-04T10:52:00.724Z,75.50
2022-11-04T10:54:28.179Z,75.21
2022-11-04T10:56:56.510Z,74.88
2022-11-04T10:59:28.706Z,75.40
2022-11-04T11:01:58.927Z,74.69
2022-11-04T11:04:30.152Z,75.24
2022-11-04T11:07:00.127Z,75.21
2022-11-04T11:09:30.965Z,74.49
2022-11-04T11:12:29.553Z,74.88
2022-11-04T11:14:53.582Z,74.81
2022-11-04T11:17:38.288Z,74.87
2022-11-04T11:20:14.820Z,74.55
2022-11-04T11:22:44.520Z,75.02
2022-11-04T11:25:30.061Z,75.25
2022-11-04T11:27:58.072Z,75.72
2022-11-04T11:30:41.989Z,75.06
2022-11-04T11:33:28.310Z,75.65
2022-11-04T11:36:12.125Z,75.93
2022-11-04T11:39:03.440Z,75.73
2022-11-04T11:41:39.573Z,75.34
2022-11-04T11:44:31.727Z,74.38
2022-11-04T11:47:03.738Z,74.64
2022-11-04T11:49:34.704Z,75.51
2022-11-04T11:52:35.113Z,75.48
2022-11-04T11:55:15.977Z,75.47
2022-11-04T12:00:48.354Z,75.44
2022-11-04T12:10:59.309Z,75.06
2022-11-04T12:13:30.582Z,74.67
2022-11-04T12:16:14.745Z,75.79
2022-11-04T12:19:10.019Z,76.01
2022-11-04T12:21:49.457Z,74.92
2022-11-04T12:24:47.375Z,75.28
2022-11-04T12:27:26.468Z,75.66
2022-11-04T12:30:12.731Z,76.05
2022-11-04T12:32:53.348Z,76.26
2022-11-04T12:35:55.840Z,75.71
2022-11-04T12:38:46.704Z,75.21
2022-11-04T12:42:19.603Z,75.08
2022-11-04T12:45:01.484Z,74.26
2022-11-04T12:47:40.936Z,75.08
2022-11-04T12:50:35.689Z,75.34
2022-11-04T12:53:20.821Z,74.89
2022-11-04T12:56:07.975Z,73.82
2022-11-04T12:59:04.284Z,74.48
2022-11-04T13:01:39.091Z,73.96
2022-11-04T13:04:42.836Z,74.15
2022-11-04T13:07:37.327Z,73.57
2022-11-04T13:10:20.631Z,73.84
2022-11-04T13:12:50.790Z,73.61
2022-11-04T13:15:23.500Z,73.76
2022-11-04T13:17:56.614Z,74.29
2022-11-04T13:20:35.617Z,74.68
2022-11-04T13:23:15.261Z,74.66
2022-11-04T13:25:45.512Z,74.61
2022-11-04T13:28:20.871Z,74.47
2022-11-04T13:31:17.491Z,74.70
2022-11-04T13:33:59.580Z,74.25
2022-11-04T13:36:53.826Z,75.50
2022-11-04T13:39:36.615Z,74.93
2022-11-04T13:42:35.892Z,74.62
2022-11-04T13:45:14.050Z,75.10
2022-11-04T13:47:51.774Z,75.30
2022-11-04T13:50:36.956Z,75.28
2022-11-04T13:53:06.769Z,74.70
2022-11-04T13:55:35.813Z,74.82
2022-11-04T13:58:05.404Z,74.73
2022-11-04T14:00:35.600Z,74.36
2022-11-04T14:03:27.411Z,74.10
2022-11-04T14:06:00.330Z,73.58
2022-11-04T14:08:27.332Z,73.68
2022-11-04T14:10:54.019Z,73.71
2022-11-04T14:13:37.571Z,73.28
2022-11-04T14:16:39.536Z,72.77
2022-11-04T14:19:48.277Z,72.69
2022-11-04T14:22:17.554Z,72.50
2022-11-04T14:24:44.976Z,72.88
2022-11-04T14:27:27.419Z,73.18
2022-11-04T14:29:54.845Z,74.64
2022-11-04T14:32:31.873Z,73.78
2022-11-04T14:35:03.520Z,74.07
2022-11-04T14:37:37.312Z,74.68
2022-11-04T14:40:25.344Z,74.96
2022-11-04T14:42:57.587Z,74.50
2022-11-04T14:45:37.749Z,74.20
2022-11-04T14:48:16.511Z,74.24
2022-11-04T14:50:49.701Z,73.93
2022-11-04T14:53:31.368Z,73.80
2022-11-04T14:56:23.159Z,73.92
2022-11-04T14:59:06.341Z,73.98
2022-11-04T15:01:37.404Z,74.10
2022-11-04T15:04:26.406Z,73.42
2022-11-04T15:06:59.516Z,73.94
2022-11-04T15:09:38.309Z,73.44
2022-11-04T15:12:33.611Z,73.31
2022-11-04T15:15:00.939Z,73.13
2022-11-04T15:17:32.463Z,72.63
2022-11-04T15:20:04.517Z,72.74
2022-11-04T15:22:31.373Z,72.36
2022-11-04T15:25:03.326Z,72.36
2022-11-04T15:27:30.486Z,72.58
2022-11-04T15:30:01.085Z,73.02
2022-11-04T15:32:28.852Z,73.70
2022-11-04T15:34:57.018Z,73.49
2022-11-04T15:37:25.829Z,73.73
2022-11-04T15:39:55.567Z,73.91
2022-11-04T15:42:43.662Z,73.78
2022-11-04T15:45:22.638Z,73.58
2022-11-04T15:47:50.772Z,73.41
2022-11-04T15:50:25.931Z,73.49
2022-11-04T15:52:55.583Z,73.50
2022-11-04T15:55:26.054Z,73.95
2022-11-04T15:57:55.400Z,73.88
2022-11-04T16:00:25.123Z,74.18
2022-11-04T16:02:57.193Z,73.69
2022-11-04T16:05:33.210Z,74.08
2022-11-04T16:08:20.405Z,74.13
2022-11-04T16:10:47.998Z,74.13
2022-11-04T16:13:14.835Z,74.04
2022-11-04T16:15:46.933Z,73.62
2022-11-04T16:18:39.094Z,73.94
2022-11-04T16:21:31.994Z,73.96
2022-11-04T16:24:07.884Z,73.84
2022-11-04T16:26:41.159Z,74.32
2022-11-04T16:29:31.680Z,74.06
2022-11-04T16:32:45.053Z,74.06
2022-11-04T16:35:23.066Z,74.11
2022-11-04T16:37:51.422Z,73.97
2022-11-04T16:40:20.130Z,74.19
2022-11-04T16:42:48.410Z,74.17
2022-11-04T16:45:31.494Z,74.15
2022-11-04T16:47:58.891Z,74.19
2022-11-04T16:50:26.626Z,74.42
2022-11-04T16:52:54.068Z,74.63
2022-11-04T16:55:24.451Z,74.83
2022-11-04T16:58:04.842Z,74.83
2022-11-04T17:00:33.058Z,75.39
2022-11-04T17:03:21.047Z,75.26
2022-11-04T17:05:56.110Z,75.69
2022-11-04T17:08:24.721Z,75.93
2022-11-04T17:10:52.183Z,76.04
2022-11-04T17:13:19.041Z,76.17
2022-11-04T17:15:46.047Z,76.33
2022-11-04T17:18:18.199Z,76.66
2022-11-04T17:20:51.127Z,76.47
2022-11-04T17:23:18.624Z,76.29
2022-11-04T17:25:46.499Z,76.58
2022-11-04T17:28:16.437Z,76.34
2022-11-04T17:30:44.784Z,76.39
2022-11-04T17:33:16.785Z,76.58
2022-11-04T17:35:48.251Z,76.58
2022-11-04T17:38:15.800Z,76.74
2022-11-04T17:41:01.784Z,77.27
2022-11-04T17:43:47.149Z,77.20
2022-11-04T17:46:33.986Z,77.38
2022-11-04T17:49:03.660Z,77.36
2022-11-04T17:51:31.332Z,77.05
2022-11-04T17:53:58.428Z,77.50
2022-11-04T17:56:25.807Z,77.05
2022-11-04T17:58:53.452Z,77.17
2022-11-04T18:01:23.149Z,77.23
2022-11-04T18:03:53.385Z,77.48
2022-11-04T18:06:22.044Z,77.16
2022-11-04T18:08:49.202Z,77.10
2022-11-04T18:11:34.958Z,77.59
2022-11-04T18:14:01.770Z,77.35
2022-11-04T18:16:28.735Z,77.27
2022-11-04T18:18:57.712Z,77.18
2022-11-04T18:21:25.145Z,77.38
2022-11-04T18:23:52.039Z,76.96
2022-11-04T18:26:18.996Z,77.24
2022-11-04T18:28:45.759Z,76.93
2022-11-04T18:31:33.120Z,77.32
2022-11-04T18:34:02.695Z,77.13
2022-11-04T18:36:31.229Z,77.12
2022-11-04T18:38:58.059Z,77.11
2022-11-04T18:41:25.143Z,76.95
2022-11-04T18:43:52.282Z,77.33
2022-11-04T18:46:19.819Z,77.28
2022-11-04T18:48:51.519Z,77.36
2022-11-04T18:51:22.064Z,77.47
2022-11-04T18:53:50.539Z,77.53
2022-11-04T18:56:22.744Z,77.48
2022-11-04T18:58:51.162Z,77.60
2022-11-04T19:01:20.370Z,77.29
2022-11-04T19:03:47.757Z,77.26
2022-11-04T19:06:24.977Z,77.69
2022-11-04T19:08:56.053Z,78.05
2022-11-04T19:11:27.577Z,77.64
2022-11-04T19:13:58.640Z,77.82
2022-11-04T19:16:26.951Z,77.53
2022-11-04T19:18:54.866Z,77.26
2022-11-04T19:21:24.153Z,77.76
2022-11-04T19:23:51.112Z,78.16
2022-11-04T19:26:25.529Z,78.07
2022-11-04T19:28:52.405Z,77.85
2022-11-04T19:31:23.878Z,77.83
2022-11-04T19:33:51.740Z,77.48
2022-11-04T19:36:22.202Z,77.37
2022-11-04T19:38:54.055Z,77.43
2022-11-04T19:41:40.896Z,77.19
2022-11-04T19:44:12.995Z,77.32
2022-11-04T19:46:40.351Z,77.66
2022-11-04T19:49:08.012Z,77.27
2022-11-04T19:51:36.533Z,77.60
2022-11-04T19:54:04.169Z,77.70
2022-11-04T19:56:33.422Z,77.49
2022-11-04T19:59:05.880Z,77.22
2022-11-04T20:01:34.781Z,76.88
2022-11-04T20:04:03.453Z,76.98
2022-11-04T20:06:32.190Z,77.38
2022-11-04T20:09:05.183Z,77.05
2022-11-04T20:11:59.904Z,77.30
2022-11-04T20:14:28.353Z,77.01
2022-11-04T20:16:55.215Z,77.04
2022-11-04T20:19:23.026Z,77.02
2022-11-04T20:21:50.484Z,77.38
2022-11-04T20:24:17.751Z,77.68
2022-11-04T20:26:46.602Z,77.55
2022-11-04T20:29:15.865Z,77.46
2022-11-04T20:31:43.411Z,77.35
2022-11-04T20:34:12.492Z,77.33
2022-11-04T20:36:40.011Z,77.55
2022-11-04T20:39:18.837Z,78.14
2022-11-04T20:41:46.461Z,77.88
2022-11-04T20:44:15.180Z,78.40
2022-11-04T20:46:43.267Z,79.08
2022-11-04T20:49:11.068Z,78.58
2022-11-04T20:51:48.831Z,78.56
2022-11-04T20:54:19.301Z,78.63
2022-11-04T20:56:46.225Z,78.98
2022-11-04T20:59:14.311Z,78.85
2022-11-04T21:01:44.261Z,78.76
2022-11-04T21:04:20.712Z,78.61
2022-11-04T21:06:49.368Z,78.11
2022-11-04T21:09:20.162Z,78.41
2022-11-04T21:11:47.680Z,78.30
2022-11-04T21:14:16.917Z,78.11
2022-11-04T21:16:44.064Z,78.15
2022-11-04T21:19:15.766Z,78.43
2022-11-04T21:21:43.814Z,78.30
2022-11-04T21:24:14.639Z,78.88
2022-11-04T21:26:42.331Z,78.53
2022-11-04T21:29:14.310Z,78.84
2022-11-04T21:31:42.531Z,78.93
2022-11-04T21:34:09.764Z,78.72
2022-11-04T21:36:36.871Z,78.97
2022-11-04T21:39:04.323Z,79.01
2022-11-04T21:41:37.306Z,79.34
2022-11-04T21:44:08.376Z,79.63
2022-11-04T21:46:36.594Z,78.79
2022-11-04T21:49:03.922Z,78.02
2022-11-04T21:51:32.688Z,77.69
2022-11-04T21:54:00.451Z,77.67
2022-11-04T21:56:29.635Z,77.76
2022-11-04T21:58:57.002Z,78.60
2022-11-04T22:01:27.049Z,78.15
2022-11-04T22:04:00.055Z,77.88
2022-11-04T22:06:34.766Z,78.28
2022-11-04T22:09:05.200Z,77.98
2022-11-04T22:11:34.023Z,76.92
2022-11-04T22:14:04.542Z,77.38
2022-11-04T22:16:36.326Z,77.57
2022-11-04T22:19:05.777Z,78.18
2022-11-04T22:21:33.424Z,78.26
2022-11-04T22:24:01.329Z,78.30
2022-11-04T22:26:32.774Z,77.59
2022-11-04T22:29:00.330Z,77.10
2022-11-04T22:31:37.558Z,76.84
2022-11-04T22:34:05.015Z,77.00
2022-11-04T22:36:33.588Z,77.22
2022-11-04T22:39:00.856Z,77.65
2022-11-04T22:41:31.787Z,77.79
2022-11-04T22:43:59.361Z,77.52
2022-11-04T22:46:29.804Z,78.13
2022-11-04T22:48:57.049Z,77.99
2022-11-04T22:51:24.027Z,78.36
2022-11-04T22:53:58.926Z,78.63
2022-11-04T22:56:28.365Z,78.67
2022-11-04T22:58:55.227Z,78.71
2022-11-04T23:01:22.685Z,78.43
2022-11-04T23:03:52.095Z,77.82
2022-11-04T23:06:19.369Z,77.44
2022-11-04T23:08:46.299Z,77.65
2022-11-04T23:11:43.754Z,77.72
2022-11-04T23:14:35.566Z,78.41
2022-11-04T23:17:22.176Z,78.56
2022-11-04T23:19:50.545Z,78.15
2022-11-04T23:22:35.631Z,78.07
2022-11-04T23:25:11.209Z,77.85
2022-11-04T23:28:06.069Z,77.84
2022-11-04T23:30:52.826Z,78.15
2022-11-04T23:33:39.647Z,78.43
2022-11-04T23:36:25.150Z,78.70
2022-11-04T23:38:51.988Z,78.59
2022-11-04T23:41:37.033Z,78.65
2022-11-04T23:44:04.037Z,78.83
2022-11-04T23:46:49.238Z,78.25
2022-11-04T23:49:34.633Z,77.35
2022-11-04T23:52:19.761Z,77.51
2022-11-04T23:55:05.097Z,77.94
2022-11-04T23:57:50.293Z,77.84
